Pawhuska, Oklahoma
Current Conditions -  °F | °C
As of 6:53 AM on Saturday 22 Nov 2014 (Local Time) from KBVO Reporting Station
Haze Haze  
Wind Chill: 55°   Ceiling: 400
Heat Index: 55°   Visibility: 4mi
Dew Point: 54°   Wind: 10mph
Humidity: 96%   Direction: 160°SSE
Pressure: 30.03"   Gusts: NA
Location:  36.67°N, 96.34°W
Report Text: KBVO 221253Z AUTO 16009KT 4SM BR OVC004 13/12 A3003 RMK AO2 SLP163 T01280122
Loading
Personal Weather Stations






























Interactive Weather Map New forecast layout! Learn more

10-Day Weather Forecast

Advertisements
Track Severe Weather on mobile